LFPM 191700Z AUTO 23004KT 190V260 CAVOK 27/18 Q1019

Les avions qui composent notre flotte

Avion Robin DR400-100

Avion école

(freins aux palonniers)

F-GGJG
   * tarif promotionnel appliqué pendant la formation des élèves non brevetés


F-GGJG Planche